sensor_id;sensor_type;location;lat;lon;timestamp;temperature;humidity
75500;DHT22;64076;51.466;7.260;2023-04-23T00:01:40;22.50;44.60
75500;DHT22;64076;51.466;7.260;2023-04-23T00:04:09;22.50;44.60
75500;DHT22;64076;51.466;7.260;2023-04-23T00:06:36;22.50;44.50
75500;DHT22;64076;51.466;7.260;2023-04-23T00:09:02;22.50;44.60
75500;DHT22;64076;51.466;7.260;2023-04-23T00:11:28;22.50;44.60
75500;DHT22;64076;51.466;7.260;2023-04-23T00:13:54;22.50;44.50
75500;DHT22;64076;51.466;7.260;2023-04-23T00:16:20;22.50;44.50
75500;DHT22;64076;51.466;7.260;2023-04-23T00:18:46;22.50;44.50
75500;DHT22;64076;51.466;7.260;2023-04-23T00:21:12;22.40;44.50
75500;DHT22;64076;51.466;7.260;2023-04-23T00:23:38;22.40;44.50
75500;DHT22;64076;51.466;7.260;2023-04-23T00:26:04;22.40;44.50
75500;DHT22;64076;51.466;7.260;2023-04-23T00:28:30;22.50;44.50
75500;DHT22;64076;51.466;7.260;2023-04-23T00:30:56;22.40;44.50
75500;DHT22;64076;51.466;7.260;2023-04-23T00:33:21;22.40;44.50
75500;DHT22;64076;51.466;7.260;2023-04-23T00:35:47;22.40;44.40
75500;DHT22;64076;51.466;7.260;2023-04-23T00:38:13;22.40;44.40
75500;DHT22;64076;51.466;7.260;2023-04-23T00:40:38;22.40;44.40
75500;DHT22;64076;51.466;7.260;2023-04-23T00:43:04;22.40;44.40
75500;DHT22;64076;51.466;7.260;2023-04-23T00:45:30;22.40;44.40
75500;DHT22;64076;51.466;7.260;2023-04-23T00:47:56;22.40;44.40
75500;DHT22;64076;51.466;7.260;2023-04-23T00:50:22;22.40;44.40
75500;DHT22;64076;51.466;7.260;2023-04-23T00:52:48;22.40;44.40
75500;DHT22;64076;51.466;7.260;2023-04-23T00:55:13;22.40;44.40
75500;DHT22;64076;51.466;7.260;2023-04-23T00:57:39;22.40;44.40
75500;DHT22;64076;51.466;7.260;2023-04-23T01:00:06;22.40;44.30
75500;DHT22;64076;51.466;7.260;2023-04-23T01:02:32;22.30;44.40
75500;DHT22;64076;51.466;7.260;2023-04-23T01:05:00;22.30;44.30
75500;DHT22;64076;51.466;7.260;2023-04-23T01:07:28;22.30;44.30
75500;DHT22;64076;51.466;7.260;2023-04-23T01:09:54;22.30;44.30
75500;DHT22;64076;51.466;7.260;2023-04-23T01:12:20;22.40;44.30
75500;DHT22;64076;51.466;7.260;2023-04-23T01:14:45;22.30;44.30
75500;DHT22;64076;51.466;7.260;2023-04-23T01:17:11;22.30;44.30
75500;DHT22;64076;51.466;7.260;2023-04-23T01:19:38;22.30;44.30
75500;DHT22;64076;51.466;7.260;2023-04-23T01:22:14;22.30;44.30
75500;DHT22;64076;51.466;7.260;2023-04-23T01:24:40;22.30;44.30
75500;DHT22;64076;51.466;7.260;2023-04-23T01:27:07;22.30;44.30
75500;DHT22;64076;51.466;7.260;2023-04-23T01:29:33;22.30;44.30
75500;DHT22;64076;51.466;7.260;2023-04-23T01:32:00;22.30;44.30
75500;DHT22;64076;51.466;7.260;2023-04-23T01:34:26;22.30;44.30
75500;DHT22;64076;51.466;7.260;2023-04-23T01:36:53;22.30;44.30
75500;DHT22;64076;51.466;7.260;2023-04-23T01:39:18;22.30;44.30
75500;DHT22;64076;51.466;7.260;2023-04-23T01:41:45;22.30;44.30
75500;DHT22;64076;51.466;7.260;2023-04-23T01:44:11;22.30;44.30
75500;DHT22;64076;51.466;7.260;2023-04-23T01:46:37;22.30;44.30
75500;DHT22;64076;51.466;7.260;2023-04-23T01:49:02;22.30;44.30
75500;DHT22;64076;51.466;7.260;2023-04-23T01:51:29;22.20;44.20
75500;DHT22;64076;51.466;7.260;2023-04-23T01:53:54;22.20;44.20
75500;DHT22;64076;51.466;7.260;2023-04-23T01:56:24;22.20;44.20
75500;DHT22;64076;51.466;7.260;2023-04-23T01:58:51;22.30;44.20
75500;DHT22;64076;51.466;7.260;2023-04-23T02:01:17;22.20;44.20
75500;DHT22;64076;51.466;7.260;2023-04-23T02:03:43;22.20;44.20
75500;DHT22;64076;51.466;7.260;2023-04-23T02:06:10;22.20;44.20
75500;DHT22;64076;51.466;7.260;2023-04-23T02:08:36;22.20;44.20
75500;DHT22;64076;51.466;7.260;2023-04-23T02:11:02;22.20;44.20
75500;DHT22;64076;51.466;7.260;2023-04-23T02:13:27;22.20;44.20
75500;DHT22;64076;51.466;7.260;2023-04-23T02:15:53;22.20;44.30
75500;DHT22;64076;51.466;7.260;2023-04-23T02:18:18;22.20;44.20
75500;DHT22;64076;51.466;7.260;2023-04-23T02:20:44;22.20;44.20
75500;DHT22;64076;51.466;7.260;2023-04-23T02:23:09;22.20;44.20
75500;DHT22;64076;51.466;7.260;2023-04-23T02:25:36;22.20;44.20
75500;DHT22;64076;51.466;7.260;2023-04-23T02:28:03;22.20;44.20
75500;DHT22;64076;51.466;7.260;2023-04-23T02:30:34;22.20;44.10
75500;DHT22;64076;51.466;7.260;2023-04-23T02:33:00;22.20;44.10
75500;DHT22;64076;51.466;7.260;2023-04-23T02:35:25;22.20;44.20
75500;DHT22;64076;51.466;7.260;2023-04-23T02:37:52;22.20;44.20
75500;DHT22;64076;51.466;7.260;2023-04-23T02:40:18;22.20;44.10
75500;DHT22;64076;51.466;7.260;2023-04-23T02:42:44;22.20;44.10
75500;DHT22;64076;51.466;7.260;2023-04-23T02:45:10;22.20;44.10
75500;DHT22;64076;51.466;7.260;2023-04-23T02:47:36;22.10;44.10
75500;DHT22;64076;51.466;7.260;2023-04-23T02:50:02;22.10;44.10
75500;DHT22;64076;51.466;7.260;2023-04-23T02:52:30;22.10;44.10
75500;DHT22;64076;51.466;7.260;2023-04-23T02:54:56;22.10;44.10
75500;DHT22;64076;51.466;7.260;2023-04-23T02:57:21;22.10;44.10
75500;DHT22;64076;51.466;7.260;2023-04-23T02:59:47;22.10;44.10
75500;DHT22;64076;51.466;7.260;2023-04-23T03:02:12;22.10;44.10
75500;DHT22;64076;51.466;7.260;2023-04-23T03:04:38;22.10;44.00
75500;DHT22;64076;51.466;7.260;2023-04-23T03:07:04;22.10;44.10
75500;DHT22;64076;51.466;7.260;2023-04-23T03:09:29;22.10;44.10
75500;DHT22;64076;51.466;7.260;2023-04-23T03:11:55;22.10;44.00
75500;DHT22;64076;51.466;7.260;2023-04-23T03:14:22;22.10;44.10
75500;DHT22;64076;51.466;7.260;2023-04-23T03:16:47;22.10;44.00
75500;DHT22;64076;51.466;7.260;2023-04-23T03:19:13;22.10;44.00
75500;DHT22;64076;51.466;7.260;2023-04-23T03:21:39;22.10;44.00
75500;DHT22;64076;51.466;7.260;2023-04-23T03:24:05;22.10;44.00
75500;DHT22;64076;51.466;7.260;2023-04-23T03:26:31;22.10;44.00
75500;DHT22;64076;51.466;7.260;2023-04-23T03:28:56;22.10;44.00
75500;DHT22;64076;51.466;7.260;2023-04-23T03:31:22;22.10;44.00
75500;DHT22;64076;51.466;7.260;2023-04-23T03:33:47;22.10;44.00
75500;DHT22;64076;51.466;7.260;2023-04-23T03:36:13;22.10;44.00
75500;DHT22;64076;51.466;7.260;2023-04-23T03:38:39;22.10;44.00
75500;DHT22;64076;51.466;7.260;2023-04-23T03:41:05;22.10;43.90
75500;DHT22;64076;51.466;7.260;2023-04-23T03:43:30;22.10;44.00
75500;DHT22;64076;51.466;7.260;2023-04-23T03:45:56;22.00;43.90
75500;DHT22;64076;51.466;7.260;2023-04-23T03:48:22;22.10;43.90
75500;DHT22;64076;51.466;7.260;2023-04-23T03:50:47;22.00;43.90
75500;DHT22;64076;51.466;7.260;2023-04-23T03:53:13;22.00;43.90
75500;DHT22;64076;51.466;7.260;2023-04-23T03:55:38;22.00;43.90
75500;DHT22;64076;51.466;7.260;2023-04-23T03:58:04;22.00;43.90
75500;DHT22;64076;51.466;7.260;2023-04-23T04:00:29;22.00;43.90
75500;DHT22;64076;51.466;7.260;2023-04-23T04:02:55;22.00;43.90
75500;DHT22;64076;51.466;7.260;2023-04-23T04:05:21;22.00;43.90
75500;DHT22;64076;51.466;7.260;2023-04-23T04:07:47;22.00;43.90
75500;DHT22;64076;51.466;7.260;2023-04-23T04:10:12;22.00;43.80
75500;DHT22;64076;51.466;7.260;2023-04-23T04:12:38;22.00;43.80
75500;DHT22;64076;51.466;7.260;2023-04-23T04:15:05;22.00;43.80
75500;DHT22;64076;51.466;7.260;2023-04-23T04:17:31;22.00;43.80
75500;DHT22;64076;51.466;7.260;2023-04-23T04:19:57;22.00;43.80
75500;DHT22;64076;51.466;7.260;2023-04-23T04:22:23;22.00;43.80
75500;DHT22;64076;51.466;7.260;2023-04-23T04:24:48;22.00;43.80
75500;DHT22;64076;51.466;7.260;2023-04-23T04:27:16;22.00;43.80
75500;DHT22;64076;51.466;7.260;2023-04-23T04:29:42;22.00;43.80
75500;DHT22;64076;51.466;7.260;2023-04-23T04:32:08;22.00;43.80
75500;DHT22;64076;51.466;7.260;2023-04-23T04:34:34;22.00;43.80
75500;DHT22;64076;51.466;7.260;2023-04-23T04:37:02;22.00;43.80
75500;DHT22;64076;51.466;7.260;2023-04-23T04:39:28;22.00;43.70
75500;DHT22;64076;51.466;7.260;2023-04-23T04:41:53;22.00;43.70
75500;DHT22;64076;51.466;7.260;2023-04-23T04:44:19;22.00;43.70
75500;DHT22;64076;51.466;7.260;2023-04-23T04:46:45;22.00;43.70
75500;DHT22;64076;51.466;7.260;2023-04-23T04:49:12;22.00;43.70
75500;DHT22;64076;51.466;7.260;2023-04-23T04:51:39;22.00;43.70
75500;DHT22;64076;51.466;7.260;2023-04-23T04:54:06;22.00;43.70
75500;DHT22;64076;51.466;7.260;2023-04-23T04:56:32;22.00;43.70
75500;DHT22;64076;51.466;7.260;2023-04-23T04:58:58;22.00;43.70
75500;DHT22;64076;51.466;7.260;2023-04-23T05:01:25;22.00;43.70
75500;DHT22;64076;51.466;7.260;2023-04-23T05:03:51;22.00;43.70
75500;DHT22;64076;51.466;7.260;2023-04-23T05:06:17;22.00;43.70
75500;DHT22;64076;51.466;7.260;2023-04-23T05:08:43;22.00;43.60
75500;DHT22;64076;51.466;7.260;2023-04-23T05:11:13;22.00;43.60
75500;DHT22;64076;51.466;7.260;2023-04-23T05:13:39;22.00;43.50
75500;DHT22;64076;51.466;7.260;2023-04-23T05:16:05;22.00;43.50
75500;DHT22;64076;51.466;7.260;2023-04-23T05:18:31;22.10;43.50
75500;DHT22;64076;51.466;7.260;2023-04-23T05:20:57;22.10;43.50
75500;DHT22;64076;51.466;7.260;2023-04-23T05:23:22;22.10;43.40
75500;DHT22;64076;51.466;7.260;2023-04-23T05:25:48;22.20;43.30
75500;DHT22;64076;51.466;7.260;2023-04-23T05:28:16;22.20;43.20
75500;DHT22;64076;51.466;7.260;2023-04-23T05:30:41;22.20;43.00
75500;DHT22;64076;51.466;7.260;2023-04-23T05:33:07;22.30;42.90
75500;DHT22;64076;51.466;7.260;2023-04-23T05:35:33;22.40;42.70
75500;DHT22;64076;51.466;7.260;2023-04-23T05:37:58;22.50;42.50
75500;DHT22;64076;51.466;7.260;2023-04-23T05:40:24;22.60;42.40
75500;DHT22;64076;51.466;7.260;2023-04-23T05:42:49;22.80;42.20
75500;DHT22;64076;51.466;7.260;2023-04-23T05:45:15;22.90;42.00
75500;DHT22;64076;51.466;7.260;2023-04-23T05:47:40;23.00;41.90
75500;DHT22;64076;51.466;7.260;2023-04-23T05:50:06;23.10;41.60
75500;DHT22;64076;51.466;7.260;2023-04-23T05:52:32;23.20;41.50
75500;DHT22;64076;51.466;7.260;2023-04-23T05:55:00;23.30;41.30
75500;DHT22;64076;51.466;7.260;2023-04-23T05:57:37;23.40;41.20
75500;DHT22;64076;51.466;7.260;2023-04-23T06:00:04;23.40;41.00
75500;DHT22;64076;51.466;7.260;2023-04-23T06:02:30;23.50;41.10
75500;DHT22;64076;51.466;7.260;2023-04-23T06:04:58;23.50;41.10
75500;DHT22;64076;51.466;7.260;2023-04-23T06:07:23;23.40;41.20
75500;DHT22;64076;51.466;7.260;2023-04-23T06:09:49;23.30;41.40
75500;DHT22;64076;51.466;7.260;2023-04-23T06:12:14;23.20;41.40
75500;DHT22;64076;51.466;7.260;2023-04-23T06:14:40;23.20;41.50
75500;DHT22;64076;51.466;7.260;2023-04-23T06:17:06;23.20;41.60
75500;DHT22;64076;51.466;7.260;2023-04-23T06:19:31;23.10;41.60
75500;DHT22;64076;51.466;7.260;2023-04-23T06:21:57;23.10;41.70
75500;DHT22;64076;51.466;7.260;2023-04-23T06:24:22;23.10;41.70
75500;DHT22;64076;51.466;7.260;2023-04-23T06:26:48;23.10;41.70
75500;DHT22;64076;51.466;7.260;2023-04-23T06:29:13;23.00;41.70
75500;DHT22;64076;51.466;7.260;2023-04-23T06:31:39;23.00;41.80
75500;DHT22;64076;51.466;7.260;2023-04-23T06:34:06;23.00;41.90
75500;DHT22;64076;51.466;7.260;2023-04-23T06:36:31;22.90;41.90
75500;DHT22;64076;51.466;7.260;2023-04-23T06:38:57;22.90;42.00
75500;DHT22;64076;51.466;7.260;2023-04-23T06:41:23;22.90;42.00
75500;DHT22;64076;51.466;7.260;2023-04-23T06:43:48;22.90;42.00
75500;DHT22;64076;51.466;7.260;2023-04-23T06:46:14;22.90;42.00
75500;DHT22;64076;51.466;7.260;2023-04-23T06:48:40;22.90;42.00
75500;DHT22;64076;51.466;7.260;2023-04-23T06:51:05;22.90;42.00
75500;DHT22;64076;51.466;7.260;2023-04-23T06:53:31;22.90;42.00
75500;DHT22;64076;51.466;7.260;2023-04-23T06:55:57;22.90;42.00
75500;DHT22;64076;51.466;7.260;2023-04-23T06:58:22;22.90;42.10
75500;DHT22;64076;51.466;7.260;2023-04-23T07:00:55;22.80;42.10
75500;DHT22;64076;51.466;7.260;2023-04-23T07:03:21;22.80;42.20
75500;DHT22;64076;51.466;7.260;2023-04-23T07:05:46;22.80;42.20
75500;DHT22;64076;51.466;7.260;2023-04-23T07:08:12;22.80;42.20
75500;DHT22;64076;51.466;7.260;2023-04-23T07:10:38;22.80;42.20
75500;DHT22;64076;51.466;7.260;2023-04-23T07:13:04;22.80;42.30
75500;DHT22;64076;51.466;7.260;2023-04-23T07:15:30;22.70;42.30
75500;DHT22;64076;51.466;7.260;2023-04-23T07:17:55;22.70;42.30
75500;DHT22;64076;51.466;7.260;2023-04-23T07:20:21;22.70;42.30
75500;DHT22;64076;51.466;7.260;2023-04-23T07:22:46;22.70;42.40
75500;DHT22;64076;51.466;7.260;2023-04-23T07:25:12;22.70;42.30
75500;DHT22;64076;51.466;7.260;2023-04-23T07:27:37;22.70;42.30
75500;DHT22;64076;51.466;7.260;2023-04-23T07:30:04;22.70;42.40
75500;DHT22;64076;51.466;7.260;2023-04-23T07:32:29;22.70;42.40
75500;DHT22;64076;51.466;7.260;2023-04-23T07:34:55;22.70;42.40
75500;DHT22;64076;51.466;7.260;2023-04-23T07:37:21;22.70;42.30
75500;DHT22;64076;51.466;7.260;2023-04-23T07:39:47;22.70;42.40
75500;DHT22;64076;51.466;7.260;2023-04-23T07:42:13;22.80;42.30
75500;DHT22;64076;51.466;7.260;2023-04-23T07:44:38;22.80;42.20
75500;DHT22;64076;51.466;7.260;2023-04-23T07:47:04;22.80;42.20
75500;DHT22;64076;51.466;7.260;2023-04-23T07:49:29;22.80;42.30
75500;DHT22;64076;51.466;7.260;2023-04-23T07:51:55;22.80;42.30
75500;DHT22;64076;51.466;7.260;2023-04-23T07:54:21;22.90;42.30
75500;DHT22;64076;51.466;7.260;2023-04-23T07:56:46;22.90;42.20
75500;DHT22;64076;51.466;7.260;2023-04-23T07:59:12;23.00;42.20
75500;DHT22;64076;51.466;7.260;2023-04-23T08:01:37;23.00;42.00
75500;DHT22;64076;51.466;7.260;2023-04-23T08:04:03;23.00;42.00
75500;DHT22;64076;51.466;7.260;2023-04-23T08:06:29;23.00;42.00
75500;DHT22;64076;51.466;7.260;2023-04-23T08:08:56;23.00;41.90
75500;DHT22;64076;51.466;7.260;2023-04-23T08:11:21;23.10;41.90
75500;DHT22;64076;51.466;7.260;2023-04-23T08:13:48;23.10;41.90
75500;DHT22;64076;51.466;7.260;2023-04-23T08:16:13;23.10;42.00
75500;DHT22;64076;51.466;7.260;2023-04-23T08:18:39;23.10;41.90
75500;DHT22;64076;51.466;7.260;2023-04-23T08:21:04;23.10;41.90
75500;DHT22;64076;51.466;7.260;2023-04-23T08:23:30;23.10;41.90
75500;DHT22;64076;51.466;7.260;2023-04-23T08:25:56;23.10;41.90
75500;DHT22;64076;51.466;7.260;2023-04-23T08:28:21;23.10;41.90
75500;DHT22;64076;51.466;7.260;2023-04-23T08:30:47;23.10;41.90
75500;DHT22;64076;51.466;7.260;2023-04-23T08:33:13;23.10;41.80
75500;DHT22;64076;51.466;7.260;2023-04-23T08:35:39;23.10;41.80
75500;DHT22;64076;51.466;7.260;2023-04-23T08:38:04;23.10;41.90
75500;DHT22;64076;51.466;7.260;2023-04-23T08:40:31;23.10;41.90
75500;DHT22;64076;51.466;7.260;2023-04-23T08:43:01;23.10;41.80
75500;DHT22;64076;51.466;7.260;2023-04-23T08:45:28;23.10;41.80
75500;DHT22;64076;51.466;7.260;2023-04-23T08:47:59;23.20;41.80
75500;DHT22;64076;51.466;7.260;2023-04-23T08:50:25;23.20;41.80
75500;DHT22;64076;51.466;7.260;2023-04-23T08:52:54;23.10;41.80
75500;DHT22;64076;51.466;7.260;2023-04-23T08:55:20;23.20;41.80
75500;DHT22;64076;51.466;7.260;2023-04-23T08:57:47;23.20;41.80
75500;DHT22;64076;51.466;7.260;2023-04-23T09:00:14;23.20;41.80
75500;DHT22;64076;51.466;7.260;2023-04-23T09:02:42;23.20;41.70
75500;DHT22;64076;51.466;7.260;2023-04-23T09:05:08;23.20;41.70
75500;DHT22;64076;51.466;7.260;2023-04-23T09:07:35;23.20;41.70
75500;DHT22;64076;51.466;7.260;2023-04-23T09:10:05;23.20;41.70
75500;DHT22;64076;51.466;7.260;2023-04-23T09:12:33;23.20;41.70
75500;DHT22;64076;51.466;7.260;2023-04-23T09:14:59;23.20;41.70
75500;DHT22;64076;51.466;7.260;2023-04-23T09:17:28;23.20;41.70
75500;DHT22;64076;51.466;7.260;2023-04-23T09:19:54;23.20;41.70
75500;DHT22;64076;51.466;7.260;2023-04-23T09:22:55;23.20;41.70
75500;DHT22;64076;51.466;7.260;2023-04-23T09:25:22;23.20;41.70
75500;DHT22;64076;51.466;7.260;2023-04-23T09:27:51;23.20;41.70
75500;DHT22;64076;51.466;7.260;2023-04-23T09:30:18;23.20;41.70
75500;DHT22;64076;51.466;7.260;2023-04-23T09:32:45;23.20;41.70
75500;DHT22;64076;51.466;7.260;2023-04-23T09:35:15;23.20;41.70
75500;DHT22;64076;51.466;7.260;2023-04-23T09:37:43;23.20;41.70
75500;DHT22;64076;51.466;7.260;2023-04-23T09:40:13;23.20;41.70
75500;DHT22;64076;51.466;7.260;2023-04-23T09:42:39;23.20;41.70
75500;DHT22;64076;51.466;7.260;2023-04-23T09:45:06;23.20;41.60
75500;DHT22;64076;51.466;7.260;2023-04-23T09:47:34;23.10;41.70
75500;DHT22;64076;51.466;7.260;2023-04-23T09:50:05;23.10;41.70
75500;DHT22;64076;51.466;7.260;2023-04-23T09:52:32;23.10;41.70
75500;DHT22;64076;51.466;7.260;2023-04-23T09:55:01;23.10;41.70
75500;DHT22;64076;51.466;7.260;2023-04-23T09:57:27;23.10;41.80
75500;DHT22;64076;51.466;7.260;2023-04-23T09:59:55;23.10;41.70
75500;DHT22;64076;51.466;7.260;2023-04-23T10:02:26;23.10;41.70
75500;DHT22;64076;51.466;7.260;2023-04-23T10:04:52;23.10;41.70
75500;DHT22;64076;51.466;7.260;2023-04-23T10:07:17;23.10;41.70
75500;DHT22;64076;51.466;7.260;2023-04-23T10:09:44;23.10;41.70
75500;DHT22;64076;51.466;7.260;2023-04-23T10:12:10;23.20;41.70
75500;DHT22;64076;51.466;7.260;2023-04-23T10:14:37;23.20;41.60
75500;DHT22;64076;51.466;7.260;2023-04-23T10:17:03;23.20;41.60
75500;DHT22;64076;51.466;7.260;2023-04-23T10:19:30;23.20;41.60
75500;DHT22;64076;51.466;7.260;2023-04-23T10:22:00;23.10;41.60
75500;DHT22;64076;51.466;7.260;2023-04-23T10:24:32;23.10;41.60
75500;DHT22;64076;51.466;7.260;2023-04-23T10:27:03;23.20;41.60
75500;DHT22;64076;51.466;7.260;2023-04-23T10:29:33;23.20;41.60
75500;DHT22;64076;51.466;7.260;2023-04-23T10:32:05;23.20;41.50
75500;DHT22;64076;51.466;7.260;2023-04-23T10:34:32;23.10;41.50
75500;DHT22;64076;51.466;7.260;2023-04-23T10:36:59;23.10;41.60
75500;DHT22;64076;51.466;7.260;2023-04-23T10:39:27;23.20;41.60
75500;DHT22;64076;51.466;7.260;2023-04-23T10:41:54;23.20;41.60
75500;DHT22;64076;51.466;7.260;2023-04-23T10:44:21;23.20;41.50
75500;DHT22;64076;51.466;7.260;2023-04-23T10:46:57;23.20;41.60
75500;DHT22;64076;51.466;7.260;2023-04-23T10:49:28;23.20;41.50
75500;DHT22;64076;51.466;7.260;2023-04-23T10:52:03;23.10;41.50
75500;DHT22;64076;51.466;7.260;2023-04-23T10:54:33;23.20;41.50
75500;DHT22;64076;51.466;7.260;2023-04-23T10:57:04;23.20;41.50
75500;DHT22;64076;51.466;7.260;2023-04-23T10:59:32;23.20;41.50
75500;DHT22;64076;51.466;7.260;2023-04-23T11:02:07;23.20;41.50
75500;DHT22;64076;51.466;7.260;2023-04-23T11:04:35;23.20;41.40
75500;DHT22;64076;51.466;7.260;2023-04-23T11:07:07;23.20;41.40
75500;DHT22;64076;51.466;7.260;2023-04-23T11:12:00;23.20;41.40
75500;DHT22;64076;51.466;7.260;2023-04-23T11:14:33;23.20;41.40
75500;DHT22;64076;51.466;7.260;2023-04-23T11:17:04;23.20;41.30
75500;DHT22;64076;51.466;7.260;2023-04-23T11:19:36;23.20;41.40
75500;DHT22;64076;51.466;7.260;2023-04-23T11:24:36;23.20;41.30
75500;DHT22;64076;51.466;7.260;2023-04-23T11:27:05;23.20;41.30
75500;DHT22;64076;51.466;7.260;2023-04-23T11:29:31;23.10;41.30
75500;DHT22;64076;51.466;7.260;2023-04-23T11:31:57;23.10;41.30
75500;DHT22;64076;51.466;7.260;2023-04-23T11:34:23;23.10;41.30
75500;DHT22;64076;51.466;7.260;2023-04-23T11:36:52;23.10;41.30
75500;DHT22;64076;51.466;7.260;2023-04-23T11:39:21;23.10;41.30
75500;DHT22;64076;51.466;7.260;2023-04-23T11:41:51;23.10;41.30
75500;DHT22;64076;51.466;7.260;2023-04-23T11:44:17;23.10;41.20
75500;DHT22;64076;51.466;7.260;2023-04-23T11:46:45;23.10;41.20
75500;DHT22;64076;51.466;7.260;2023-04-23T11:49:12;23.10;41.20
75500;DHT22;64076;51.466;7.260;2023-04-23T11:51:42;23.10;41.30
75500;DHT22;64076;51.466;7.260;2023-04-23T11:54:08;23.10;41.20
75500;DHT22;64076;51.466;7.260;2023-04-23T11:56:35;23.10;41.20
75500;DHT22;64076;51.466;7.260;2023-04-23T11:59:03;23.10;41.00
75500;DHT22;64076;51.466;7.260;2023-04-23T12:01:48;23.10;41.10
75500;DHT22;64076;51.466;7.260;2023-04-23T12:04:18;23.10;41.10
75500;DHT22;64076;51.466;7.260;2023-04-23T12:06:46;23.10;41.10
75500;DHT22;64076;51.466;7.260;2023-04-23T12:09:13;23.10;41.10
75500;DHT22;64076;51.466;7.260;2023-04-23T12:11:41;23.10;41.10
75500;DHT22;64076;51.466;7.260;2023-04-23T12:14:07;23.10;41.20
75500;DHT22;64076;51.466;7.260;2023-04-23T12:16:46;23.10;41.20
75500;DHT22;64076;51.466;7.260;2023-04-23T12:19:21;23.10;41.20
75500;DHT22;64076;51.466;7.260;2023-04-23T12:21:55;23.10;41.10
75500;DHT22;64076;51.466;7.260;2023-04-23T12:24:22;23.10;41.20
75500;DHT22;64076;51.466;7.260;2023-04-23T12:26:55;23.00;41.20
75500;DHT22;64076;51.466;7.260;2023-04-23T12:29:23;23.00;41.20
75500;DHT22;64076;51.466;7.260;2023-04-23T12:31:51;23.10;41.20
75500;DHT22;64076;51.466;7.260;2023-04-23T12:34:17;23.10;41.20
75500;DHT22;64076;51.466;7.260;2023-04-23T12:36:47;23.10;41.10
75500;DHT22;64076;51.466;7.260;2023-04-23T12:39:37;23.10;41.10
75500;DHT22;64076;51.466;7.260;2023-04-23T12:42:05;23.10;41.10
75500;DHT22;64076;51.466;7.260;2023-04-23T12:44:32;23.10;41.10
75500;DHT22;64076;51.466;7.260;2023-04-23T12:47:05;23.10;41.10
75500;DHT22;64076;51.466;7.260;2023-04-23T12:49:33;23.10;41.10
75500;DHT22;64076;51.466;7.260;2023-04-23T12:52:00;23.10;41.10
75500;DHT22;64076;51.466;7.260;2023-04-23T12:54:30;23.10;41.10
75500;DHT22;64076;51.466;7.260;2023-04-23T12:56:57;23.10;41.10
75500;DHT22;64076;51.466;7.260;2023-04-23T12:59:23;23.10;41.00
75500;DHT22;64076;51.466;7.260;2023-04-23T13:01:49;23.10;41.00
75500;DHT22;64076;51.466;7.260;2023-04-23T13:04:15;23.10;40.90
75500;DHT22;64076;51.466;7.260;2023-04-23T13:06:41;23.10;40.90
75500;DHT22;64076;51.466;7.260;2023-04-23T13:09:08;23.10;40.90
75500;DHT22;64076;51.466;7.260;2023-04-23T13:11:35;23.10;40.90
75500;DHT22;64076;51.466;7.260;2023-04-23T13:14:00;23.20;40.90
75500;DHT22;64076;51.466;7.260;2023-04-23T13:16:26;23.20;40.90
75500;DHT22;64076;51.466;7.260;2023-04-23T13:18:51;23.20;40.80
75500;DHT22;64076;51.466;7.260;2023-04-23T13:21:17;23.20;40.90
75500;DHT22;64076;51.466;7.260;2023-04-23T13:23:43;23.20;40.80
75500;DHT22;64076;51.466;7.260;2023-04-23T13:26:09;23.20;40.80
75500;DHT22;64076;51.466;7.260;2023-04-23T13:28:35;23.20;40.70
75500;DHT22;64076;51.466;7.260;2023-04-23T13:31:01;23.20;40.70
75500;DHT22;64076;51.466;7.260;2023-04-23T13:33:27;23.10;40.60
75500;DHT22;64076;51.466;7.260;2023-04-23T13:35:52;23.20;40.70
75500;DHT22;64076;51.466;7.260;2023-04-23T13:38:24;23.20;40.60
75500;DHT22;64076;51.466;7.260;2023-04-23T13:40:50;23.20;40.60
75500;DHT22;64076;51.466;7.260;2023-04-23T13:43:16;23.20;40.50
75500;DHT22;64076;51.466;7.260;2023-04-23T13:45:41;23.20;40.50
75500;DHT22;64076;51.466;7.260;2023-04-23T13:48:07;23.20;40.40
75500;DHT22;64076;51.466;7.260;2023-04-23T13:50:33;23.20;40.40
75500;DHT22;64076;51.466;7.260;2023-04-23T13:52:59;23.20;40.30
75500;DHT22;64076;51.466;7.260;2023-04-23T13:55:25;23.20;40.30
75500;DHT22;64076;51.466;7.260;2023-04-23T13:57:50;23.20;40.30
75500;DHT22;64076;51.466;7.260;2023-04-23T14:00:16;23.20;40.30
75500;DHT22;64076;51.466;7.260;2023-04-23T14:02:42;23.20;40.20
75500;DHT22;64076;51.466;7.260;2023-04-23T14:05:08;23.20;40.20
75500;DHT22;64076;51.466;7.260;2023-04-23T14:07:34;23.20;40.20
75500;DHT22;64076;51.466;7.260;2023-04-23T14:10:00;23.20;40.10
75500;DHT22;64076;51.466;7.260;2023-04-23T14:12:26;23.20;40.00
75500;DHT22;64076;51.466;7.260;2023-04-23T14:14:54;23.20;39.60
75500;DHT22;64076;51.466;7.260;2023-04-23T14:17:19;23.20;40.00
75500;DHT22;64076;51.466;7.260;2023-04-23T14:19:45;23.20;40.00
75500;DHT22;64076;51.466;7.260;2023-04-23T14:22:11;23.20;39.90
75500;DHT22;64076;51.466;7.260;2023-04-23T14:24:56;23.20;39.90
75500;DHT22;64076;51.466;7.260;2023-04-23T14:27:25;23.20;39.70
75500;DHT22;64076;51.466;7.260;2023-04-23T14:29:57;23.10;39.60
75500;DHT22;64076;51.466;7.260;2023-04-23T14:32:26;23.10;38.20
75500;DHT22;64076;51.466;7.260;2023-04-23T14:34:51;23.00;39.20
75500;DHT22;64076;51.466;7.260;2023-04-23T14:37:17;23.00;39.40
75500;DHT22;64076;51.466;7.260;2023-04-23T14:39:42;23.10;39.60
75500;DHT22;64076;51.466;7.260;2023-04-23T14:42:08;23.10;39.50
75500;DHT22;64076;51.466;7.260;2023-04-23T14:44:34;23.10;38.60
75500;DHT22;64076;51.466;7.260;2023-04-23T14:46:59;23.10;38.90
75500;DHT22;64076;51.466;7.260;2023-04-23T14:49:25;23.10;39.10
75500;DHT22;64076;51.466;7.260;2023-04-23T14:51:51;23.10;38.70
75500;DHT22;64076;51.466;7.260;2023-04-23T14:54:22;23.10;38.70
75500;DHT22;64076;51.466;7.260;2023-04-23T14:56:48;23.10;38.90
75500;DHT22;64076;51.466;7.260;2023-04-23T14:59:14;23.10;38.90
75500;DHT22;64076;51.466;7.260;2023-04-23T15:01:40;23.10;38.90
75500;DHT22;64076;51.466;7.260;2023-04-23T15:04:06;23.10;38.80
75500;DHT22;64076;51.466;7.260;2023-04-23T15:06:31;23.10;38.80
75500;DHT22;64076;51.466;7.260;2023-04-23T15:08:57;23.10;38.70
75500;DHT22;64076;51.466;7.260;2023-04-23T15:11:22;23.10;38.70
75500;DHT22;64076;51.466;7.260;2023-04-23T15:14:07;23.10;38.70
75500;DHT22;64076;51.466;7.260;2023-04-23T15:16:35;23.10;38.70
75500;DHT22;64076;51.466;7.260;2023-04-23T15:19:03;23.10;38.80
75500;DHT22;64076;51.466;7.260;2023-04-23T15:21:30;23.10;38.80
75500;DHT22;64076;51.466;7.260;2023-04-23T15:23:56;23.10;38.70
75500;DHT22;64076;51.466;7.260;2023-04-23T15:26:22;23.10;38.70
75500;DHT22;64076;51.466;7.260;2023-04-23T15:28:47;23.10;38.70
75500;DHT22;64076;51.466;7.260;2023-04-23T15:31:14;23.10;38.70
75500;DHT22;64076;51.466;7.260;2023-04-23T15:33:40;23.10;38.70